Time,TemperatureF,DewpointF,PressureIn,WindDirection,WindDirectionDegrees,WindSpeedMPH,WindSpeedGustMPH,Humidity,HourlyPrecipIn,Conditions,Clouds,dailyrainin,SoftwareType,DateUTC
2013-05-22 00:03:00,56.4,20.1,29.63,NE,44,7.0,18.0,24,0.00,,,0.00,WeatherTracker,2013-05-22 07:03:00,
2013-05-22 00:08:00,56.0,19.7,29.62,ENE,69,9.0,18.0,24,0.00,,,0.00,WeatherTracker,2013-05-22 07:08:00,
2013-05-22 00:13:00,55.7,19.5,29.62,North,360,6.0,19.0,24,0.00,,,0.00,WeatherTracker,2013-05-22 07:13:00,
2013-05-22 00:18:00,56.6,18.2,29.63,NNE,22,8.0,19.0,22,0.00,,,0.00,WeatherTracker,2013-05-22 07:18:00,
2013-05-22 00:23:00,57.6,14.4,29.63,NNW,346,3.0,28.0,18,0.00,,,0.00,WeatherTracker,2013-05-22 07:23:00,
2013-05-22 00:28:00,57.8,11.9,29.63,SW,232,10.0,0.0,16,0.00,,,0.00,WeatherTracker,2013-05-22 07:28:00,
2013-05-22 00:33:00,57.7,15.7,29.62,SSE,157,4.0,13.0,19,0.00,,,0.00,WeatherTracker,2013-05-22 07:33:00,
2013-05-22 00:39:00,58.7,12.6,29.63,East,96,6.0,20.0,16,0.00,,,0.00,WeatherTracker,2013-05-22 07:39:00,
2013-05-22 00:44:00,59.2,13.0,29.64,North,360,9.0,20.0,16,0.00,,,0.00,WeatherTracker,2013-05-22 07:44:00,
2013-05-22 00:49:00,58.5,11.0,29.64,West,267,6.0,20.0,15,0.00,,,0.00,WeatherTracker,2013-05-22 07:49:00,
2013-05-22 00:54:00,57.7,14.5,29.63,East,89,18.0,21.0,18,0.00,,,0.00,WeatherTracker,2013-05-22 07:54:00,
2013-05-22 00:59:00,57.3,19.8,29.63,ESE,106,7.0,21.0,23,0.00,,,0.00,WeatherTracker,2013-05-22 07:59:00,
2013-05-22 01:04:00,56.1,19.8,29.64,NE,54,9.0,18.0,24,0.00,,,0.00,WeatherTracker,2013-05-22 08:04:00,
2013-05-22 01:09:00,56.1,19.8,29.62,East,85,9.0,12.0,24,0.00,,,0.00,WeatherTracker,2013-05-22 08:09:00,
2013-05-22 01:14:00,55.9,15.4,29.63,ENE,59,12.0,12.0,20,0.00,,,0.00,WeatherTracker,2013-05-22 08:14:00,
2013-05-22 01:19:00,55.5,19.3,29.63,ESE,113,6.0,17.0,24,0.00,,,0.00,WeatherTracker,2013-05-22 08:19:00,
2013-05-22 01:24:00,55.7,18.5,29.63,NE,55,4.0,18.0,23,0.00,,,0.00,WeatherTracker,2013-05-22 08:24:00,
2013-05-22 01:29:00,55.6,19.4,29.63,East,88,3.0,18.0,24,0.00,,,0.00,WeatherTracker,2013-05-22 08:29:00,
2013-05-22 01:34:00,55.9,19.6,29.64,North,360,16.0,16.0,24,0.00,,,0.00,WeatherTracker,2013-05-22 08:34:00,
2013-05-22 01:39:00,56.1,19.8,29.63,SE,145,11.0,16.0,24,0.00,,,0.00,WeatherTracker,2013-05-22 08:39:00,
2013-05-22 01:44:00,57.1,9.9,29.63,WNW,297,12.0,20.0,15,0.00,,,0.00,WeatherTracker,2013-05-22 08:44:00,
2013-05-22 01:49:00,56.5,15.9,29.62,SSW,212,5.0,22.0,20,0.00,,,0.00,WeatherTracker,2013-05-22 08:49:00,
2013-05-22 01:54:00,55.8,16.5,29.61,SSW,197,14.0,22.0,21,0.00,,,0.00,WeatherTracker,2013-05-22 08:54:00,
2013-05-22 01:59:00,55.9,17.6,29.63,ESE,114,4.0,20.0,22,0.00,,,0.00,WeatherTracker,2013-05-22 08:59:00,
2013-05-22 02:04:00,55.1,18.0,29.62,ESE,104,5.0,20.0,23,0.00,,,0.00,WeatherTracker,2013-05-22 09:04:00,
2013-05-22 02:09:00,54.9,16.8,29.62,SW,218,18.0,19.0,22,0.00,,,0.00,WeatherTracker,2013-05-22 09:09:00,
2013-05-22 02:14:00,55.5,17.3,29.61,East,83,7.0,17.0,22,0.00,,,0.00,WeatherTracker,2013-05-22 09:14:00,
2013-05-22 02:20:00,54.6,18.5,29.62,North,351,7.0,21.0,24,0.00,,,0.00,WeatherTracker,2013-05-22 09:20:00,
2013-05-22 02:25:00,55.5,17.3,29.62,SW,223,14.0,21.0,22,0.00,,,0.00,WeatherTracker,2013-05-22 09:25:00,
2013-05-22 02:30:00,56.2,10.6,29.62,SW,221,9.0,26.0,16,0.00,,,0.00,WeatherTracker,2013-05-22 09:30:00,
2013-05-22 02:35:00,56.0,9.0,29.62,South,188,3.0,26.0,15,0.00,,,0.00,WeatherTracker,2013-05-22 09:35:00,
2013-05-22 02:40:00,56.3,9.3,29.62,SW,232,11.0,37.0,15,0.00,,,0.00,WeatherTracker,2013-05-22 09:40:00,
2013-05-22 02:45:00,56.2,10.6,29.62,North,360,9.0,37.0,16,0.00,,,0.00,WeatherTracker,2013-05-22 09:45:00,
2013-05-22 02:50:00,56.2,6.0,29.61,West,261,30.0,33.0,13,0.00,,,0.00,WeatherTracker,2013-05-22 09:50:00,
2013-05-22 02:55:00,56.1,7.6,29.61,North,360,25.0,33.0,14,0.00,,,0.00,WeatherTracker,2013-05-22 09:55:00,
2013-05-22 03:00:00,55.7,8.8,29.61,West,272,19.0,33.0,15,0.00,,,0.00,WeatherTracker,2013-05-22 10:00:00,
2013-05-22 03:05:00,55.8,7.3,29.62,SW,219,17.0,34.0,14,0.00,,,0.00,WeatherTracker,2013-05-22 10:05:00,
2013-05-22 03:10:00,55.7,8.8,29.62,West,265,4.0,34.0,15,0.00,,,0.00,WeatherTracker,2013-05-22 10:10:00,
2013-05-22 03:15:00,55.7,7.3,29.61,WNW,284,15.0,32.0,14,0.00,,,0.00,WeatherTracker,2013-05-22 10:15:00,
2013-05-22 03:20:00,55.0,8.2,29.61,SW,216,26.0,30.0,15,0.00,,,0.00,WeatherTracker,2013-05-22 10:20:00,
2013-05-22 03:25:00,54.9,8.1,29.61,SSW,212,9.0,31.0,15,0.00,,,0.00,WeatherTracker,2013-05-22 10:25:00,
2013-05-22 03:30:00,55.1,9.7,29.61,SW,225,18.0,33.0,16,0.00,,,0.00,WeatherTracker,2013-05-22 10:30:00,
2013-05-22 03:35:00,54.8,8.1,29.60,SW,235,15.0,33.0,15,0.00,,,0.00,WeatherTracker,2013-05-22 10:35:00,
2013-05-22 03:40:00,54.6,6.4,29.60,West,263,20.0,29.0,14,0.00,,,0.00,WeatherTracker,2013-05-22 10:40:00,
2013-05-22 03:45:00,54.4,9.2,29.60,West,263,15.0,31.0,16,0.00,,,0.00,WeatherTracker,2013-05-22 10:45:00,
2013-05-22 03:50:00,54.6,7.9,29.60,WSW,252,31.0,33.0,15,0.00,,,0.00,WeatherTracker,2013-05-22 10:50:00,
2013-05-22 03:55:00,54.4,7.7,29.61,SSW,211,14.0,33.0,15,0.00,,,0.00,WeatherTracker,2013-05-22 10:55:00,
2013-05-22 04:00:00,54.3,9.1,29.60,West,269,33.0,33.0,16,0.00,,,0.00,WeatherTracker,2013-05-22 11:00:00,
2013-05-22 04:05:00,54.2,9.0,29.61,SSW,207,14.0,40.0,16,0.00,,,0.00,WeatherTracker,2013-05-22 11:05:00,
2013-05-22 04:10:00,54.0,8.8,29.60,North,360,22.0,40.0,16,0.00,,,0.00,WeatherTracker,2013-05-22 11:10:00,
2013-05-22 04:15:00,54.0,8.8,29.60,SW,233,13.0,35.0,16,0.00,,,0.00,WeatherTracker,2013-05-22 11:15:00,
2013-05-22 04:20:00,54.4,6.2,29.61,WSW,238,17.0,35.0,14,0.00,,,0.00,WeatherTracker,2013-05-22 11:20:00,
2013-05-22 04:25:00,53.9,10.1,29.60,West,263,12.0,31.0,17,0.00,,,0.00,WeatherTracker,2013-05-22 11:25:00,
2013-05-22 04:30:00,53.5,8.4,29.61,West,272,24.0,30.0,16,0.00,,,0.00,WeatherTracker,2013-05-22 11:30:00,
2013-05-22 04:36:00,53.3,9.6,29.59,North,360,26.0,31.0,17,0.00,,,0.00,WeatherTracker,2013-05-22 11:36:00,
2013-05-22 04:41:00,53.6,8.5,29.60,SW,229,17.0,34.0,16,0.00,,,0.00,WeatherTracker,2013-05-22 11:41:00,
2013-05-22 04:46:00,54.2,7.6,29.60,SW,224,18.0,34.0,15,0.00,,,0.00,WeatherTracker,2013-05-22 11:46:00,
2013-05-22 04:51:00,54.1,6.0,29.59,SW,232,27.0,33.0,14,0.00,,,0.00,WeatherTracker,2013-05-22 11:51:00,
2013-05-22 04:56:00,54.5,7.8,29.60,SW,217,16.0,33.0,15,0.00,,,0.00,WeatherTracker,2013-05-22 11:56:00,
2013-05-22 05:01:00,54.5,6.3,29.61,South,185,13.0,32.0,14,0.00,,,0.00,WeatherTracker,2013-05-22 12:01:00,
2013-05-22 05:06:00,54.4,9.2,29.61,NNE,26,11.0,29.0,16,0.00,,,0.00,WeatherTracker,2013-05-22 12:06:00,
2013-05-22 05:11:00,53.8,10.0,29.61,ENE,76,3.0,23.0,17,0.00,,,0.00,WeatherTracker,2013-05-22 12:11:00,
2013-05-22 05:16:00,53.6,9.9,29.60,NE,34,12.0,16.0,17,0.00,,,0.00,WeatherTracker,2013-05-22 12:16:00,
2013-05-22 05:21:00,53.3,8.3,29.60,East,80,6.0,17.0,16,0.00,,,0.00,WeatherTracker,2013-05-22 12:21:00,
2013-05-22 05:26:00,53.0,9.4,29.59,ESE,111,4.0,17.0,17,0.00,,,0.00,WeatherTracker,2013-05-22 12:26:00,
2013-05-22 05:31:00,52.8,9.2,29.60,SSE,150,3.0,13.0,17,0.00,,,0.00,WeatherTracker,2013-05-22 12:31:00,
2013-05-22 05:36:00,52.2,12.4,29.60,NE,53,5.0,8.0,20,0.00,,,0.00,WeatherTracker,2013-05-22 12:36:00,
2013-05-22 05:41:00,51.4,11.7,29.59,NW,325,12.0,12.0,20,0.00,,,0.00,WeatherTracker,2013-05-22 12:41:00,
2013-05-22 05:47:00,52.0,9.8,29.60,ENE,65,15.0,19.0,18,0.00,,,0.00,WeatherTracker,2013-05-22 12:47:00,
2013-05-22 05:52:00,51.3,10.5,29.59,ENE,68,11.0,19.0,19,0.00,,,0.00,WeatherTracker,2013-05-22 12:52:00,
2013-05-22 05:57:00,50.9,11.3,29.59,ENE,70,4.0,17.0,20,0.00,,,0.00,WeatherTracker,2013-05-22 12:57:00,
2013-05-22 06:02:00,50.5,12.0,29.60,East,79,2.0,14.0,21,0.00,,,0.00,WeatherTracker,2013-05-22 13:02:00,
2013-05-22 06:07:00,50.2,13.8,29.60,East,98,3.0,9.0,23,0.00,,,0.00,WeatherTracker,2013-05-22 13:07:00,
2013-05-22 06:12:00,50.3,13.9,29.61,East,81,0.0,7.0,23,0.00,,,0.00,WeatherTracker,2013-05-22 13:12:00,
2013-05-22 06:17:00,50.5,12.0,29.61,NE,48,6.0,7.0,21,0.00,,,0.00,WeatherTracker,2013-05-22 13:17:00,
2013-05-22 06:22:00,50.5,10.9,29.61,ENE,71,5.0,11.0,20,0.00,,,0.00,WeatherTracker,2013-05-22 13:22:00,
2013-05-22 06:27:00,50.5,16.0,29.61,ENE,61,9.0,14.0,25,0.00,,,0.00,WeatherTracker,2013-05-22 13:27:00,
2013-05-22 06:33:00,50.1,13.8,29.61,NE,46,0.0,14.0,23,0.00,,,0.00,WeatherTracker,2013-05-22 13:33:00,
2013-05-22 06:37:00,50.4,15.0,29.61,ENE,61,7.0,11.0,24,0.00,,,0.00,WeatherTracker,2013-05-22 13:37:00,
2013-05-22 06:43:00,50.2,15.8,29.61,East,88,4.0,10.0,25,0.00,,,0.00,WeatherTracker,2013-05-22 13:43:00,
2013-05-22 06:48:00,50.2,16.7,29.61,ESE,114,3.0,10.0,26,0.00,,,0.00,WeatherTracker,2013-05-22 13:48:00,
2013-05-22 06:53:00,49.3,20.0,29.62,North,360,7.0,9.0,31,0.00,,,0.00,WeatherTracker,2013-05-22 13:53:00,
2013-05-22 06:58:00,46.1,27.0,29.62,NNE,18,11.0,13.0,47,0.00,,,0.00,WeatherTracker,2013-05-22 13:58:00,
2013-05-22 07:03:00,44.1,26.7,29.62,North,360,13.0,15.0,50,0.00,,,0.00,WeatherTracker,2013-05-22 14:03:00,
2013-05-22 07:08:00,43.1,26.2,29.62,NNE,15,5.0,18.0,51,0.00,,,0.00,WeatherTracker,2013-05-22 14:08:00,
2013-05-22 07:13:00,42.7,26.3,29.64,North,360,3.0,18.0,52,0.00,,,0.00,WeatherTracker,2013-05-22 14:13:00,
2013-05-22 07:18:00,42.3,26.4,29.64,West,277,5.0,16.0,53,0.00,,,0.00,WeatherTracker,2013-05-22 14:18:00,
2013-05-22 07:23:00,42.2,25.9,29.65,NW,325,3.0,13.0,52,0.00,,,0.00,WeatherTracker,2013-05-22 14:23:00,
2013-05-22 07:28:00,42.4,26.9,29.65,NW,321,11.0,11.0,54,0.00,,,0.00,WeatherTracker,2013-05-22 14:28:00,
2013-05-22 07:33:00,42.6,25.3,29.65,NNW,335,2.0,11.0,50,0.00,,,0.00,WeatherTracker,2013-05-22 14:33:00,
2013-05-22 07:38:00,42.9,26.5,29.66,North,360,4.0,11.0,52,0.00,,,0.00,WeatherTracker,2013-05-22 14:38:00,
2013-05-22 07:43:00,43.1,25.3,29.66,North,355,5.0,7.0,49,0.00,,,0.00,WeatherTracker,2013-05-22 14:43:00,
2013-05-22 07:48:00,43.1,25.7,29.66,NNE,21,0.0,7.0,50,0.00,,,0.00,WeatherTracker,2013-05-22 14:48:00,
2013-05-22 07:53:00,43.4,24.5,29.66,NNE,26,1.0,5.0,47,0.00,,,0.00,WeatherTracker,2013-05-22 14:53:00,
2013-05-22 07:58:00,43.9,24.5,29.67,NNE,26,1.0,5.0,46,0.00,,,0.00,WeatherTracker,2013-05-22 14:58:00,
2013-05-22 08:03:00,44.2,25.3,29.67,North,360,2.0,5.0,47,0.00,,,0.00,WeatherTracker,2013-05-22 15:03:00,
2013-05-22 08:08:00,43.7,25.3,29.68,North,360,5.0,9.0,48,0.00,,,0.00,WeatherTracker,2013-05-22 15:08:00,
2013-05-22 08:13:00,43.4,25.0,29.68,NE,35,5.0,11.0,48,0.00,,,0.00,WeatherTracker,2013-05-22 15:13:00,
2013-05-22 08:18:00,43.0,25.6,29.68,NE,42,4.0,12.0,50,0.00,,,0.00,WeatherTracker,2013-05-22 15:18:00,
2013-05-22 08:24:00,43.4,24.5,29.68,NE,44,0.0,12.0,47,0.00,,,0.00,WeatherTracker,2013-05-22 15:24:00,
2013-05-22 08:29:00,43.6,25.2,29.68,NE,46,5.0,9.0,48,0.00,,,0.00,WeatherTracker,2013-05-22 15:29:00,
2013-05-22 08:34:00,44.1,26.2,29.68,NNE,33,6.0,7.0,49,0.00,,,0.00,WeatherTracker,2013-05-22 15:34:00,
2013-05-22 08:39:00,44.3,25.4,29.69,NE,52,6.0,7.0,47,0.00,,,0.00,WeatherTracker,2013-05-22 15:39:00,
2013-05-22 08:44:00,44.2,25.3,29.69,NE,44,4.0,10.0,47,0.00,,,0.00,WeatherTracker,2013-05-22 15:44:00,
2013-05-22 08:49:00,44.7,28.2,29.69,NNE,29,10.0,10.0,52,0.00,,,0.00,WeatherTracker,2013-05-22 15:49:00,
2013-05-22 08:54:00,44.4,25.4,29.70,North,360,7.0,10.0,47,0.00,,,0.00,WeatherTracker,2013-05-22 15:54:00,
2013-05-22 08:59:00,44.7,26.2,29.70,NNE,30,10.0,16.0,48,0.00,,,0.00,WeatherTracker,2013-05-22 15:59:00,
2013-05-22 09:04:00,44.5,27.0,29.70,North,360,10.0,16.0,50,0.00,,,0.00,WeatherTracker,2013-05-22 16:04:00,
2013-05-22 09:09:00,44.8,27.3,29.70,North,360,7.0,15.0,50,0.00,,,0.00,WeatherTracker,2013-05-22 16:09:00,
2013-05-22 09:14:00,44.3,25.9,29.70,North,360,5.0,16.0,48,0.00,,,0.00,WeatherTracker,2013-05-22 16:14:00,
2013-05-22 09:19:00,44.6,26.6,29.70,North,350,7.0,16.0,49,0.00,,,0.00,WeatherTracker,2013-05-22 16:19:00,
2013-05-22 09:24:00,45.2,26.7,29.70,North,360,6.0,16.0,48,0.00,,,0.00,WeatherTracker,2013-05-22 16:24:00,
2013-05-22 09:29:00,45.9,25.8,29.70,North,360,7.0,13.0,45,0.00,,,0.00,WeatherTracker,2013-05-22 16:29:00,
2013-05-22 09:34:00,46.0,25.3,29.70,NE,47,0.0,12.0,44,0.00,,,0.00,WeatherTracker,2013-05-22 16:34:00,
2013-05-22 09:39:00,46.7,26.0,29.70,NE,47,2.0,12.0,44,0.00,,,0.00,WeatherTracker,2013-05-22 16:39:00,
2013-05-22 09:44:00,47.1,27.9,29.70,North,360,4.0,9.0,47,0.00,,,0.00,WeatherTracker,2013-05-22 16:44:00,
2013-05-22 09:49:00,46.7,26.5,29.70,North,360,3.0,6.0,45,0.00,,,0.00,WeatherTracker,2013-05-22 16:49:00,
2013-05-22 09:55:00,47.0,28.8,29.70,North,355,7.0,7.0,49,0.00,,,0.00,WeatherTracker,2013-05-22 16:55:00,
2013-05-22 10:00:00,47.3,26.5,29.70,North,360,2.0,7.0,44,0.00,,,0.00,WeatherTracker,2013-05-22 17:00:00,
2013-05-22 10:05:00,47.4,27.1,29.70,North,11,5.0,7.0,45,0.00,,,0.00,WeatherTracker,2013-05-22 17:05:00,
2013-05-22 10:10:00,47.8,27.0,29.70,NNW,338,6.0,9.0,44,0.00,,,0.00,WeatherTracker,2013-05-22 17:10:00,
2013-05-22 10:15:00,48.3,28.5,29.70,North,360,1.0,10.0,46,0.00,,,0.00,WeatherTracker,2013-05-22 17:15:00,
2013-05-22 10:20:00,48.9,27.4,29.70,North,360,12.0,12.0,43,0.00,,,0.00,WeatherTracker,2013-05-22 17:20:00,
2013-05-22 10:25:00,48.8,25.0,29.70,North,355,12.0,15.0,39,0.00,,,0.00,WeatherTracker,2013-05-22 17:25:00,
2013-05-22 10:30:00,48.9,27.4,29.70,North,360,7.0,16.0,43,0.00,,,0.00,WeatherTracker,2013-05-22 17:30:00,
2013-05-22 10:35:00,49.0,26.3,29.70,North,360,9.0,16.0,41,0.00,,,0.00,WeatherTracker,2013-05-22 17:35:00,
2013-05-22 10:40:00,49.2,25.9,29.70,North,360,13.0,17.0,40,0.00,,,0.00,WeatherTracker,2013-05-22 17:40:00,
2013-05-22 10:45:00,49.5,25.0,29.70,North,360,9.0,17.0,38,0.00,,,0.00,WeatherTracker,2013-05-22 17:45:00,
2013-05-22 10:50:00,49.7,25.8,29.70,North,355,7.0,15.0,39,0.00,,,0.00,WeatherTracker,2013-05-22 17:50:00,
2013-05-22 10:55:00,50.0,26.6,29.70,North,355,11.0,15.0,40,0.00,,,0.00,WeatherTracker,2013-05-22 17:55:00,
2013-05-22 11:00:00,49.9,24.7,29.70,North,360,5.0,16.0,37,0.00,,,0.00,WeatherTracker,2013-05-22 18:00:00,
2013-05-22 11:05:00,50.2,26.8,29.70,North,360,10.0,16.0,40,0.00,,,0.00,WeatherTracker,2013-05-22 18:05:00,
2013-05-22 11:10:00,50.8,28.0,29.70,North,360,11.0,15.0,41,0.00,,,0.00,WeatherTracker,2013-05-22 18:10:00,
2013-05-22 11:15:00,51.0,24.3,29.70,North,360,4.0,15.0,35,0.00,,,0.00,WeatherTracker,2013-05-22 18:15:00,
2013-05-22 11:20:00,51.0,26.3,29.70,North,360,5.0,15.0,38,0.00,,,0.00,WeatherTracker,2013-05-22 18:20:00,
2013-05-22 11:26:00,51.5,26.1,29.70,North,9,12.0,15.0,37,0.00,,,0.00,WeatherTracker,2013-05-22 18:26:00,
2013-05-22 11:31:00,51.6,26.8,29.70,NNW,340,13.0,15.0,38,0.00,,,0.00,WeatherTracker,2013-05-22 18:31:00,
2013-05-22 11:36:00,51.5,24.1,29.70,North,351,8.0,16.0,34,0.00,,,0.00,WeatherTracker,2013-05-22 18:36:00,
2013-05-22 11:41:00,51.5,27.4,29.70,North,9,9.0,17.0,39,0.00,,,0.00,WeatherTracker,2013-05-22 18:41:00,
2013-05-22 11:46:00,51.9,27.7,29.70,North,360,11.0,17.0,39,0.00,,,0.00,WeatherTracker,2013-05-22 18:46:00,
2013-05-22 11:51:00,52.2,26.7,29.70,North,360,6.0,16.0,37,0.00,,,0.00,WeatherTracker,2013-05-22 18:51:00,
2013-05-22 11:56:00,52.5,26.3,29.70,North,355,14.0,17.0,36,0.00,,,0.00,WeatherTracker,2013-05-22 18:56:00,
2013-05-22 12:01:00,52.4,26.9,29.70,North,350,7.0,17.0,37,0.00,,,0.00,WeatherTracker,2013-05-22 19:01:00,
2013-05-22 12:06:00,52.6,27.1,29.70,North,360,9.0,17.0,37,0.00,,,0.00,WeatherTracker,2013-05-22 19:06:00,
2013-05-22 12:11:00,53.6,26.6,29.70,West,265,11.0,17.0,35,0.00,,,0.00,WeatherTracker,2013-05-22 19:11:00,
2013-05-22 12:16:00,53.9,26.9,29.70,West,274,6.0,16.0,35,0.00,,,0.00,WeatherTracker,2013-05-22 19:16:00,
2013-05-22 12:21:00,54.3,25.1,29.70,West,275,11.0,16.0,32,0.00,,,0.00,WeatherTracker,2013-05-22 19:21:00,
2013-05-22 12:26:00,54.1,25.6,29.70,NNW,337,6.0,14.0,33,0.00,,,0.00,WeatherTracker,2013-05-22 19:26:00,
2013-05-22 12:31:00,54.6,26.1,29.70,WNW,296,5.0,13.0,33,0.00,,,0.00,WeatherTracker,2013-05-22 19:31:00,
2013-05-22 12:36:00,54.8,25.5,29.70,West,266,5.0,14.0,32,0.00,,,0.00,WeatherTracker,2013-05-22 19:36:00,
2013-05-22 12:41:00,55.0,26.4,29.70,WNW,290,5.0,14.0,33,0.00,,,0.00,WeatherTracker,2013-05-22 19:41:00,
2013-05-22 12:46:00,55.3,26.7,29.69,WNW,287,7.0,13.0,33,0.00,,,0.00,WeatherTracker,2013-05-22 19:46:00,
2013-05-22 12:51:00,55.3,25.2,29.70,West,261,11.0,17.0,31,0.00,,,0.00,WeatherTracker,2013-05-22 19:51:00,
2013-05-22 12:56:00,55.1,27.2,29.69,WNW,292,5.0,17.0,34,0.00,,,0.00,WeatherTracker,2013-05-22 19:56:00,
2013-05-22 13:01:00,55.6,24.7,29.69,WNW,302,7.0,15.0,30,0.00,,,0.00,WeatherTracker,2013-05-22 20:01:00,
2013-05-22 13:06:00,55.6,24.7,29.69,WSW,254,5.0,13.0,30,0.00,,,0.00,WeatherTracker,2013-05-22 20:06:00,
2013-05-22 13:11:00,56.0,25.8,29.69,WNW,302,2.0,13.0,31,0.00,,,0.00,WeatherTracker,2013-05-22 20:11:00,
2013-05-22 13:16:00,57.1,26.0,29.69,West,277,5.0,10.0,30,0.00,,,0.00,WeatherTracker,2013-05-22 20:16:00,
2013-05-22 13:21:00,57.3,26.1,29.69,North,5,0.0,12.0,30,0.00,,,0.00,WeatherTracker,2013-05-22 20:21:00,
2013-05-22 13:26:00,57.6,24.7,29.69,WNW,283,4.0,12.0,28,0.00,,,0.00,WeatherTracker,2013-05-22 20:26:00,
2013-05-22 13:32:00,57.7,26.5,29.69,WNW,290,5.0,9.0,30,0.00,,,0.00,WeatherTracker,2013-05-22 20:32:00,
2013-05-22 13:37:00,57.8,26.6,29.69,WNW,290,4.0,10.0,30,0.00,,,0.00,WeatherTracker,2013-05-22 20:37:00,
2013-05-22 13:42:00,58.6,27.3,29.69,West,269,4.0,10.0,30,0.00,,,0.00,WeatherTracker,2013-05-22 20:42:00,
2013-05-22 13:47:00,58.0,26.7,29.68,WNW,290,4.0,11.0,30,0.00,,,0.00,WeatherTracker,2013-05-22 20:47:00,
2013-05-22 13:52:00,57.8,24.9,29.68,SW,227,2.0,14.0,28,0.00,,,0.00,WeatherTracker,2013-05-22 20:52:00,
2013-05-22 13:57:00,57.8,25.8,29.68,NW,311,4.0,14.0,29,0.00,,,0.00,WeatherTracker,2013-05-22 20:57:00,
2013-05-22 14:02:00,58.5,28.0,29.68,NW,309,6.0,9.0,31,0.00,,,0.00,WeatherTracker,2013-05-22 21:02:00,
2013-05-22 14:07:00,59.2,27.0,29.68,West,272,3.0,9.0,29,0.00,,,0.00,WeatherTracker,2013-05-22 21:07:00,
2013-05-22 14:12:00,59.0,25.9,29.68,West,260,10.0,11.0,28,0.00,,,0.00,WeatherTracker,2013-05-22 21:12:00,
2013-05-22 14:17:00,58.0,25.9,29.68,WNW,288,4.0,13.0,29,0.00,,,0.00,WeatherTracker,2013-05-22 21:17:00,
2013-05-22 14:22:00,58.0,27.5,29.68,West,271,0.0,13.0,31,0.00,,,0.00,WeatherTracker,2013-05-22 21:22:00,
2013-05-22 14:27:00,59.0,25.9,29.68,West,262,2.0,13.0,28,0.00,,,0.00,WeatherTracker,2013-05-22 21:27:00,
2013-05-22 14:32:00,59.0,26.8,29.67,West,261,6.0,9.0,29,0.00,,,0.00,WeatherTracker,2013-05-22 21:32:00,
2013-05-22 14:37:00,58.9,25.9,29.67,West,281,5.0,10.0,28,0.00,,,0.00,WeatherTracker,2013-05-22 21:37:00,
2013-05-22 14:42:00,59.3,27.9,29.67,West,267,5.0,13.0,30,0.00,,,0.00,WeatherTracker,2013-05-22 21:42:00,
2013-05-22 14:47:00,59.4,28.8,29.67,West,279,3.0,13.0,31,0.00,,,0.00,WeatherTracker,2013-05-22 21:47:00,
2013-05-22 14:52:00,60.1,30.1,29.67,NW,326,1.0,10.0,32,0.00,,,0.00,WeatherTracker,2013-05-22 21:52:00,
2013-05-22 14:57:00,61.2,27.0,29.66,West,267,4.0,7.0,27,0.00,,,0.00,WeatherTracker,2013-05-22 21:57:00,
2013-05-22 15:02:00,61.1,27.8,29.66,NW,310,2.0,9.0,28,0.00,,,0.00,WeatherTracker,2013-05-22 22:02:00,
2013-05-22 15:07:00,60.8,26.6,29.66,WNW,293,5.0,11.0,27,0.00,,,0.00,WeatherTracker,2013-05-22 22:07:00,
2013-05-22 15:12:00,61.2,27.8,29.66,NW,307,1.0,12.0,28,0.00,,,0.00,WeatherTracker,2013-05-22 22:12:00,
2013-05-22 15:17:00,61.7,27.4,29.66,West,269,13.0,13.0,27,0.00,,,0.00,WeatherTracker,2013-05-22 22:17:00,
2013-05-22 15:22:00,61.3,26.1,29.66,West,259,6.0,13.0,26,0.00,,,0.00,WeatherTracker,2013-05-22 22:22:00,
2013-05-22 15:28:00,61.0,26.8,29.66,WNW,297,3.0,13.0,27,0.00,,,0.00,WeatherTracker,2013-05-22 22:28:00,
2013-05-22 15:33:00,61.3,25.2,29.66,NW,318,1.0,12.0,25,0.00,,,0.00,WeatherTracker,2013-05-22 22:33:00,
2013-05-22 15:38:00,62.3,27.0,29.66,NNE,13,6.0,12.0,26,0.00,,,0.00,WeatherTracker,2013-05-22 22:38:00,
2013-05-22 15:43:00,63.1,28.6,29.65,NNW,331,5.0,16.0,27,0.00,,,0.00,WeatherTracker,2013-05-22 22:43:00,
2013-05-22 15:48:00,63.3,27.8,29.65,NW,316,4.0,16.0,26,0.00,,,0.00,WeatherTracker,2013-05-22 22:48:00,
2013-05-22 15:53:00,63.4,28.8,29.65,NW,314,2.0,9.0,27,0.00,,,0.00,WeatherTracker,2013-05-22 22:53:00,
2013-05-22 15:58:00,64.1,30.3,29.65,North,355,4.0,7.0,28,0.00,,,0.00,WeatherTracker,2013-05-22 22:58:00,
2013-05-22 16:03:00,63.8,27.3,29.65,NNW,342,3.0,11.0,25,0.00,,,0.00,WeatherTracker,2013-05-22 23:03:00,
2013-05-22 16:08:00,63.9,28.3,29.65,NNE,28,0.0,11.0,26,0.00,,,0.00,WeatherTracker,2013-05-22 23:08:00,
2013-05-22 16:13:00,63.7,27.2,29.65,SSE,167,1.0,10.0,25,0.00,,,0.00,WeatherTracker,2013-05-22 23:13:00,
2013-05-22 16:18:00,62.3,24.0,29.65,NNE,32,1.0,8.0,23,0.00,,,0.00,WeatherTracker,2013-05-22 23:18:00,
2013-05-22 16:23:00,62.3,26.0,29.65,NNW,340,0.0,11.0,25,0.00,,,0.00,WeatherTracker,2013-05-22 23:23:00,
2013-05-22 16:28:00,62.9,26.5,29.65,ENE,72,4.0,12.0,25,0.00,,,0.00,WeatherTracker,2013-05-22 23:28:00,
2013-05-22 16:33:00,61.3,24.2,29.65,SE,136,0.0,12.0,24,0.00,,,0.00,WeatherTracker,2013-05-22 23:33:00,
2013-05-22 16:38:00,61.2,25.1,29.65,SSW,211,6.0,12.0,25,0.00,,,0.00,WeatherTracker,2013-05-22 23:38:00,
2013-05-22 16:43:00,60.5,24.5,29.66,East,98,8.0,15.0,25,0.00,,,0.00,WeatherTracker,2013-05-22 23:43:00,
2013-05-22 16:48:00,60.2,25.2,29.65,SW,226,15.0,15.0,26,0.00,,,0.00,WeatherTracker,2013-05-22 23:48:00,
2013-05-22 16:53:00,59.1,26.0,29.65,SSW,210,13.0,20.0,28,0.00,,,0.00,WeatherTracker,2013-05-22 23:53:00,
2013-05-22 16:58:00,58.8,25.8,29.66,SSW,213,11.0,20.0,28,0.00,,,0.00,WeatherTracker,2013-05-22 23:58:00,
2013-05-22 17:03:00,58.5,27.2,29.66,SW,227,16.0,26.0,30,0.00,,,0.00,WeatherTracker,2013-05-23 00:03:00,
2013-05-22 17:08:00,58.0,25.1,29.66,SW,215,11.0,26.0,28,0.00,,,0.00,WeatherTracker,2013-05-23 00:08:00,
2013-05-22 17:13:00,57.7,24.0,29.67,South,184,13.0,25.0,27,0.00,,,0.00,WeatherTracker,2013-05-23 00:13:00,
2013-05-22 17:18:00,58.0,26.7,29.67,SSE,156,6.0,22.0,30,0.00,,,0.00,WeatherTracker,2013-05-23 00:18:00,
2013-05-22 17:23:00,57.8,24.9,29.68,SSW,195,11.0,22.0,28,0.00,,,0.00,WeatherTracker,2013-05-23 00:23:00,
2013-05-22 17:28:00,57.4,24.6,29.68,ENE,63,12.0,19.0,28,0.00,,,0.00,WeatherTracker,2013-05-23 00:28:00,
2013-05-22 17:34:00,57.2,23.5,29.67,SW,231,4.0,19.0,27,0.00,,,0.00,WeatherTracker,2013-05-23 00:34:00,
2013-05-22 17:39:00,57.3,24.5,29.68,SSW,206,9.0,19.0,28,0.00,,,0.00,WeatherTracker,2013-05-23 00:39:00,
2013-05-22 17:44:00,57.1,24.3,29.68,South,171,9.0,19.0,28,0.00,,,0.00,WeatherTracker,2013-05-23 00:44:00,
2013-05-22 17:49:00,56.9,23.3,29.68,South,190,5.0,16.0,27,0.00,,,0.00,WeatherTracker,2013-05-23 00:49:00,
2013-05-22 17:54:00,56.8,24.1,29.68,South,187,7.0,17.0,28,0.00,,,0.00,WeatherTracker,2013-05-23 00:54:00,
2013-05-22 17:59:00,56.8,24.1,29.68,SSE,152,4.0,17.0,28,0.00,,,0.00,WeatherTracker,2013-05-23 00:59:00,
2013-05-22 18:04:00,56.6,23.0,29.68,South,176,3.0,18.0,27,0.00,,,0.00,WeatherTracker,2013-05-23 01:04:00,
2013-05-22 18:09:00,56.8,22.3,29.68,South,173,3.0,18.0,26,0.00,,,0.00,WeatherTracker,2013-05-23 01:09:00,
2013-05-22 18:14:00,56.6,23.0,29.68,South,182,4.0,17.0,27,0.00,,,0.00,WeatherTracker,2013-05-23 01:14:00,
2013-05-22 18:19:00,56.9,23.3,29.68,SSE,158,5.0,14.0,27,0.00,,,0.00,WeatherTracker,2013-05-23 01:19:00,
2013-05-22 18:24:00,56.8,23.2,29.68,South,188,6.0,14.0,27,0.00,,,0.00,WeatherTracker,2013-05-23 01:24:00,
2013-05-22 18:29:00,56.3,22.8,29.68,SSE,158,2.0,14.0,27,0.00,,,0.00,WeatherTracker,2013-05-23 01:29:00,
2013-05-22 18:34:00,56.2,22.7,29.68,SSE,163,3.0,16.0,27,0.00,,,0.00,WeatherTracker,2013-05-23 01:34:00,
2013-05-22 18:39:00,56.6,23.0,29.68,West,260,6.0,16.0,27,0.00,,,0.00,WeatherTracker,2013-05-23 01:39:00,
2013-05-22 18:44:00,56.9,21.5,29.68,SW,235,0.0,14.0,25,0.00,,,0.00,WeatherTracker,2013-05-23 01:44:00,
2013-05-22 18:49:00,56.8,23.2,29.68,SE,125,2.0,8.0,27,0.00,,,0.00,WeatherTracker,2013-05-23 01:49:00,
2013-05-22 18:54:00,56.9,24.1,29.69,SSE,153,0.0,5.0,28,0.00,,,0.00,WeatherTracker,2013-05-23 01:54:00,
2013-05-22 18:59:00,56.9,22.4,29.69,WSW,245,2.0,4.0,26,0.00,,,0.00,WeatherTracker,2013-05-23 01:59:00,
2013-05-22 19:04:00,56.2,23.5,29.69,ESE,103,4.0,8.0,28,0.00,,,0.00,WeatherTracker,2013-05-23 02:04:00,
2013-05-22 19:09:00,55.3,22.8,29.69,SSE,150,2.0,8.0,28,0.00,,,0.00,WeatherTracker,2013-05-23 02:09:00,
2013-05-22 19:14:00,55.0,23.3,29.69,South,190,6.0,16.0,29,0.00,,,0.00,WeatherTracker,2013-05-23 02:14:00,
2013-05-22 19:20:00,53.7,23.0,29.70,SSW,197,1.0,13.0,30,0.00,,,0.00,WeatherTracker,2013-05-23 02:20:00,
2013-05-22 19:25:00,53.0,21.6,29.70,SSW,212,5.0,13.0,29,0.00,,,0.00,WeatherTracker,2013-05-23 02:25:00,
2013-05-22 19:30:00,52.7,22.1,29.69,SSW,212,0.0,5.0,30,0.00,,,0.00,WeatherTracker,2013-05-23 02:30:00,
2013-05-22 19:35:00,52.3,22.6,29.70,SSW,211,0.0,5.0,31,0.00,,,0.00,WeatherTracker,2013-05-23 02:35:00,
2013-05-22 19:40:00,51.8,23.6,29.70,SW,216,1.0,4.0,33,0.00,,,0.00,WeatherTracker,2013-05-23 02:40:00,
2013-05-22 19:45:00,52.5,20.4,29.70,North,349,1.0,4.0,28,0.00,,,0.00,WeatherTracker,2013-05-23 02:45:00,
2013-05-22 19:50:00,52.4,21.1,29.70,NNW,333,0.0,1.0,29,0.00,,,0.00,WeatherTracker,2013-05-23 02:50:00,
2013-05-22 19:55:00,52.1,20.0,29.70,NNW,342,0.0,1.0,28,0.00,,,0.00,WeatherTracker,2013-05-23 02:55:00,
2013-05-22 20:00:00,52.0,19.9,29.70,NNW,333,0.0,1.0,28,0.00,,,0.00,WeatherTracker,2013-05-23 03:00:00,
2013-05-22 20:05:00,51.7,19.7,29.71,NNW,333,0.0,1.0,28,0.00,,,0.00,WeatherTracker,2013-05-23 03:05:00,
2013-05-22 20:10:00,51.4,20.2,29.71,North,360,0.0,0.0,29,0.00,,,0.00,WeatherTracker,2013-05-23 03:10:00,
2013-05-22 20:15:00,51.0,20.7,29.71,North,5,0.0,1.0,30,0.00,,,0.00,WeatherTracker,2013-05-23 03:15:00,
2013-05-22 20:20:00,50.8,20.5,29.71,North,5,0.0,1.0,30,0.00,,,0.00,WeatherTracker,2013-05-23 03:20:00,
2013-05-22 20:25:00,50.7,20.4,29.71,NW,322,0.0,1.0,30,0.00,,,0.00,WeatherTracker,2013-05-23 03:25:00,
2013-05-22 20:30:00,50.6,20.3,29.71,NNE,27,0.0,2.0,30,0.00,,,0.00,WeatherTracker,2013-05-23 03:30:00,
2013-05-22 20:35:00,50.6,19.5,29.71,NNW,338,0.0,3.0,29,0.00,,,0.00,WeatherTracker,2013-05-23 03:35:00,
2013-05-22 20:40:00,50.1,19.1,29.72,West,260,0.0,3.0,29,0.00,,,0.00,WeatherTracker,2013-05-23 03:40:00,
2013-05-22 20:45:00,49.8,19.6,29.72,West,271,0.0,0.0,30,0.00,,,0.00,WeatherTracker,2013-05-23 03:45:00,
2013-05-22 20:50:00,49.0,20.4,29.73,WSW,254,0.0,0.0,32,0.00,,,0.00,WeatherTracker,2013-05-23 03:50:00,
2013-05-22 20:55:00,48.8,19.5,29.73,WSW,250,0.0,0.0,31,0.00,,,0.00,WeatherTracker,2013-05-23 03:55:00,
2013-05-22 21:00:00,48.0,18.1,29.73,West,273,0.0,0.0,30,0.00,,,0.00,WeatherTracker,2013-05-23 04:00:00,
2013-05-22 21:01:00,48.1,18.2,29.73,West,269,0.0,0.0,30,0.00,,,0.00,WeatherTracker,2013-05-23 04:01:00,
2013-05-22 21:07:00,49.5,18.6,29.73,WSW,242,0.0,0.0,29,0.00,,,0.00,WeatherTracker,2013-05-23 04:07:00,
2013-05-22 21:12:00,48.5,18.5,29.73,SW,226,0.0,0.0,30,0.00,,,0.00,WeatherTracker,2013-05-23 04:12:00,
2013-05-22 21:17:00,48.3,18.3,29.73,SW,227,0.0,0.0,30,0.00,,,0.00,WeatherTracker,2013-05-23 04:17:00,
2013-05-22 21:22:00,48.4,17.6,29.73,SW,228,0.0,0.0,29,0.00,,,0.00,WeatherTracker,2013-05-23 04:22:00,
2013-05-22 21:27:00,48.8,17.2,29.74,WSW,240,0.0,0.0,28,0.00,,,0.00,WeatherTracker,2013-05-23 04:27:00,
2013-05-22 21:32:00,48.3,16.7,29.74,West,265,0.0,0.0,28,0.00,,,0.00,WeatherTracker,2013-05-23 04:32:00,
2013-05-22 21:37:00,47.2,15.8,29.74,WNW,296,0.0,0.0,28,0.00,,,0.00,WeatherTracker,2013-05-23 04:37:00,
2013-05-22 21:42:00,46.3,16.6,29.74,West,275,0.0,0.0,30,0.00,,,0.00,WeatherTracker,2013-05-23 04:42:00,
2013-05-22 21:47:00,46.3,17.3,29.74,WNW,286,0.0,0.0,31,0.00,,,0.00,WeatherTracker,2013-05-23 04:47:00,
2013-05-22 21:52:00,46.1,17.2,29.74,WNW,302,0.0,0.0,31,0.00,,,0.00,WeatherTracker,2013-05-23 04:52:00,
2013-05-22 21:57:00,45.7,16.8,29.74,NW,306,0.0,0.0,31,0.00,,,0.00,WeatherTracker,2013-05-23 04:57:00,
2013-05-22 22:02:00,45.1,17.0,29.75,WNW,282,0.0,0.0,32,0.00,,,0.00,WeatherTracker,2013-05-23 05:02:00,
2013-05-22 22:07:00,45.8,17.6,29.75,West,261,0.0,0.0,32,0.00,,,0.00,WeatherTracker,2013-05-23 05:07:00,
2013-05-22 22:12:00,45.7,17.5,29.75,WNW,288,0.0,0.0,32,0.00,,,0.00,WeatherTracker,2013-05-23 05:12:00,
2013-05-22 22:17:00,43.9,16.7,29.75,WNW,298,0.0,0.0,33,0.00,,,0.00,WeatherTracker,2013-05-23 05:17:00,
2013-05-22 22:22:00,43.7,16.5,29.75,WNW,303,0.0,0.0,33,0.00,,,0.00,WeatherTracker,2013-05-23 05:22:00,
2013-05-22 22:27:00,43.1,17.3,29.75,NNW,329,0.0,0.0,35,0.00,,,0.00,WeatherTracker,2013-05-23 05:27:00,
2013-05-22 22:32:00,41.9,17.5,29.75,NNW,337,0.0,0.0,37,0.00,,,0.00,WeatherTracker,2013-05-23 05:32:00,
2013-05-22 22:37:00,41.2,16.9,29.75,NNW,337,0.0,0.0,37,0.00,,,0.00,WeatherTracker,2013-05-23 05:37:00,
2013-05-22 22:42:00,41.1,15.6,29.75,NNW,347,0.0,0.0,35,0.00,,,0.00,WeatherTracker,2013-05-23 05:42:00,
2013-05-22 22:47:00,41.4,17.7,29.75,NNW,345,0.0,0.0,38,0.00,,,0.00,WeatherTracker,2013-05-23 05:47:00,
2013-05-22 22:52:00,41.5,15.9,29.75,NNW,341,0.0,0.0,35,0.00,,,0.00,WeatherTracker,2013-05-23 05:52:00,
2013-05-22 22:57:00,41.2,15.0,29.75,NNW,341,0.0,0.0,34,0.00,,,0.00,WeatherTracker,2013-05-23 05:57:00,
2013-05-22 23:03:00,41.0,15.5,29.75,NNW,341,0.0,0.0,35,0.00,,,0.00,WeatherTracker,2013-05-23 06:03:00,
2013-05-22 23:08:00,40.9,16.0,29.75,NNW,344,0.0,0.0,36,0.00,,,0.00,WeatherTracker,2013-05-23 06:08:00,
2013-05-22 23:13:00,41.4,15.8,29.75,NNW,342,0.0,0.0,35,0.00,,,0.00,WeatherTracker,2013-05-23 06:13:00,
2013-05-22 23:18:00,41.6,15.3,29.75,North,350,0.0,0.0,34,0.00,,,0.00,WeatherTracker,2013-05-23 06:18:00,
2013-05-22 23:23:00,41.3,15.1,29.75,NNW,346,0.0,1.0,34,0.00,,,0.00,WeatherTracker,2013-05-23 06:23:00,
2013-05-22 23:28:00,41.0,14.8,29.75,NNW,345,0.0,1.0,34,0.00,,,0.00,WeatherTracker,2013-05-23 06:28:00,
2013-05-22 23:33:00,40.6,15.1,29.75,NNW,345,0.0,1.0,35,0.00,,,0.00,WeatherTracker,2013-05-23 06:33:00,
2013-05-22 23:38:00,39.9,15.1,29.75,NNW,345,0.0,0.0,36,0.00,,,0.00,WeatherTracker,2013-05-23 06:38:00,
2013-05-22 23:43:00,39.4,15.3,29.75,NNW,345,0.0,0.0,37,0.00,,,0.00,WeatherTracker,2013-05-23 06:43:00,
2013-05-22 23:48:00,39.3,15.2,29.75,NNW,345,0.0,0.0,37,0.00,,,0.00,WeatherTracker,2013-05-23 06:48:00,
2013-05-22 23:53:00,39.5,16.6,29.75,NNW,345,0.0,0.0,39,0.00,,,0.00,WeatherTracker,2013-05-23 06:53:00,
2013-05-22 23:58:00,39.5,16.0,29.76,NNW,345,0.0,0.0,38,0.00,,,0.00,WeatherTracker,2013-05-23 06:58:00,